• Join FlightAware (Why Join?)
  • Login
  • US Flag 
02:28AM EDT


 

Airport Tracker/Info


-or-


 

Live Flight TrackerFlight Track Log ✈ N8192Q ✈ 14-Mar-2014 ✈ KMOR - KFTY

Flight Track Log - Related Links

Times and Time Zones

All times are in EDT time to prevent confusion due to time zone crossing. See the N8192Q flight status page for this flight to view local times or setup timezone preferences in your user account.

Time Position Orientation Groundspeed Altitude Reporting Facility
EDT Latitude Longitude Course Direction KTS MPH feet Rate Location/Type
02:08PM 35.3906 -83.7739 202° Southwest 129 148 7,600  Level Atlanta Center
02:09PM 35.3550 -83.7892 199° South 129 148 7,600 -60 Level Atlanta Center
02:10PM 35.3217 -83.8072 204° Southwest 129 148 7,500  Descending Atlanta Center
02:11PM 35.2903 -83.8225 202° Southwest 129 148 7,600  Climbing Atlanta Center
02:12PM 35.2569 -83.8353 197° South 129 148 7,600  Level Atlanta Center
02:13PM 35.9587 -83.4839 202° Southwest  Level Estimated
02:13PM 35.2258 -83.8531 205° Southwest 129 148 7,600  Level Atlanta Center
02:14PM 35.1925 -83.8686 201° Southwest 129 148 7,500 -60 Descending Atlanta Center
02:15PM 35.1569 -83.8839 199° South 134 154 7,500  Level Atlanta Center
02:16PM 35.1236 -83.8992 201° Southwest 134 154 7,600  Climbing Atlanta Center
02:17PM 35.0903 -83.9144 201° Southwest 134 154 7,500 -60 Descending Atlanta Center
02:18PM 35.0547 -83.9322 202° Southwest 134 154 7,500  Level Atlanta Center
02:19PM 35.0214 -83.9475 201° Southwest 134 154 7,500  Level Atlanta Center
02:20PM 34.9858 -83.9653 202° Southwest 134 154 7,600  Climbing Atlanta Center
02:21PM 34.9506 -83.9806 200° South 134 154 7,500  Descending Atlanta Center
02:22PM 34.9192 -83.9983 205° Southwest 129 148 7,600  Climbing Atlanta Center
02:23PM 34.8858 -84.0133 200° South 129 148 7,500  Descending Atlanta Center
02:24PM 34.8503 -84.0286 199° South 129 148 7,600  Climbing Atlanta Center
02:25PM 34.8147 -84.0464 202° Southwest 129 148 7,600  Level Atlanta Center
02:26PM 34.7772 -84.0617 199° South 134 154 7,600 -60 Level Atlanta Center
02:27PM 34.7458 -84.0792 205° Southwest 134 154 7,500 -60 Descending Atlanta Center
02:28PM 34.7147 -84.0944 202° Southwest 129 148 7,500  Level Atlanta Center
02:29PM 34.6811 -84.1069 197° South 129 148 7,500 -60 Level Atlanta Center
02:30PM 34.6500 -84.1194 198° South 129 148 7,400 -240 Descending Atlanta Center
02:31PM 34.6164 -84.1322 197° South 129 148 7,100 -300 Descending Atlanta Center
02:32PM 34.5811 -84.1497 202° Southwest 129 148 6,800 -180 Descending Atlanta Center
02:33PM 34.5497 -84.1650 202° Southwest 134 154 6,800 -60 Level Atlanta Center
02:34PM 34.5164 -84.1800 200° South 132 152 6,700 -300 Descending Atlanta Center
02:35PM 34.4828 -84.1950 200° South 132 152 6,300 -420 Descending Atlanta Center
02:36PM 34.4494 -84.2125 203° Southwest 132 152 5,900 -360 Descending Atlanta Center
02:37PM 34.4139 -84.2303 202° Southwest 132 152 5,600 -300 Descending Atlanta Center
02:38PM 34.3806 -84.2453 200° South 132 152 5,400 -300 Descending Atlanta Center
02:39PM 34.3450 -84.2603 199° South 132 152 5,100 -300 Descending Atlanta Center
02:40PM 34.3094 -84.2753 199° South 132 152 4,900 -240 Descending Atlanta Center
02:41PM 34.2719 -84.2928 201° Southwest 132 152 4,700 -120 Descending Atlanta Center
02:42PM 34.2364 -84.3103 202° Southwest 132 152 4,700 -60 Level Atlanta Center
02:43PM 34.2050 -84.3250 201° Southwest 132 152 4,600  Descending Atlanta Center
02:44PM 34.1694 -84.3425 202° Southwest 132 152 4,700  Climbing Atlanta Center
02:45PM 34.1342 -84.3575 199° South 132 152 4,700  Level Atlanta Center
02:46PM 34.1028 -84.3725 202° Southwest 132 152 4,700  Level Atlanta Center
02:48PM 34.0167 -84.4167 203° Southwest 129 148 4,700  Level Atlanta TRACON
02:49PM 33.9833 -84.4333 203° Southwest 129 148 4,700  Level Atlanta TRACON
02:50PM 33.9500 -84.4333 180° South 136 157 4,800  Climbing Atlanta TRACON
02:51PM 33.9167 -84.4333 180° South 138 159 4,700 -420 Descending Atlanta TRACON
02:52PM 33.8667 -84.4500 195° South 134 154 4,000 -840 Descending Atlanta TRACON
02:54PM 33.8167 -84.4833 209° Southwest 123 142 2,300 -660 Descending Atlanta TRACON
02:55PM 33.8000 -84.5167 239° Southwest 101 116 2,100 -60 Descending Atlanta TRACON
02:56PM 33.8000 -84.5333 270° West 94 108 2,200  Climbing Atlanta TRACON
02:57PM 33.8167 -84.5500 320° Northwest 104 120 2,100 -240 Descending Atlanta TRACON
02:58PM 33.8000 -84.5500 180° South 101 116 1,800 -360 Descending Atlanta TRACON
03:00PM 33.7791 -84.5214 151° Southeast  Level Estimated